Graysville, Indiana
Current Conditions -  °F | °C
As of 1:15 PM on Friday 31 Oct 2014 (Local Time) from KRSV Reporting Station
Overcast Overcast  
Wind Chill: 36°   Ceiling: 7500
Heat Index: 44°   Visibility: 10mi
Dew Point: 33°   Wind: 20mph
Humidity: 65%   Direction: 330°NNW
Pressure: 30.13"   Gusts: 28mph
Location:  39.12°N, 87.56°W
Report Text: KRSV 311715Z AUTO 33017G24KT 10SM SCT031 OVC075 07/00 A3013 RMK AO2 T00660004
Loading
Personal Weather Stations






























Interactive Weather Map
Tropical Storm Tracking
New forecast layout! Learn more

10-Day Weather Forecast

Advertisements
Track Severe Weather on mobile